PILOTS ONLINE: 537    ATC ONLINE: 83

KGKY - Arlington Municipal Airport

Location

City Arlington
Country  United States
Latitude 32° 39' 50" N
Longitude 97° 5' 39" W
Elevation 628 ft
Type Small Airport

Runways

16/34 6080 ft / 100 ft

Weather

METAR
2014/07/29 19:53
KGKY 291953Z 32004KT 10SM -RA OVC090 26/19 A3014 RMK AO2 RAB24 SLP197 T02560194 $
TAF
2014/07/29 18:21
TAF KGKY 291720Z 2918/3018 10005KT P6SM VCSH BKN100 
     FM291900 12006KT P6SM BKN100 
     FM292200 12006KT P6SM SCT100 BKN250 
     FM301500 16010KT P6SM VCSH BKN100

Outbound flights

Inbound flights